^^
Datos históricos de la estación: Murcia-Puente Tocinos
Diario Informe para Noviembre 13, 2019 Unidades:  Métrico    Ingés   Ambas
Diario Semanal Mensual Anual
  Máxima: Mínima: Promedio:
Temperatura: 23.3 °C 11.9 °C 17.3 °C
Punto de rocio: 9.5 °C 1.9 °C 7 °C
Humedad: 70% 39% 52%
Velocidad viento: 30.6km/h 0km/h 9km/h
Racha viento: 56.3km/h - -
Viento- - SO
Presión: 1010.9 hPa 1005.5 hPa -
Precipitación: 0.0 mm    
 
 
Tabla de datos para Noviembre 13, 2019
Hora Temperatura Punto de rocio Presión Viento Velocidad viento Racha viento Humedad Intensidad lluvia(por hora) Nubes
00:04 13.7 °C 1.9 °C 1009.9 hPa SO 5 km/h 8.4 km/h 45% 0.0 mm
00:09 13.7 °C 1.9 °C 1009.9 hPa SSO 4.7 km/h 8.4 km/h 45% 0.0 mm
00:14 13.7 °C 2.1 °C 1009.6 hPa Oeste 4.6 km/h 8.4 km/h 45.6% 0.0 mm
00:19 13.6 °C 2.2 °C 1009.6 hPa OSO 4.7 km/h 8 km/h 46% 0.0 mm
00:24 13.6 °C 2.2 °C 1009.6 hPa SO 4.1 km/h 8.7 km/h 46% 0.0 mm
00:29 13.5 °C 2.1 °C 1009.5 hPa SO 3.9 km/h 8 km/h 46% 0.0 mm
00:34 13.5 °C 2.1 °C 1009.5 hPa SSO 3.5 km/h 8 km/h 46% 0.0 mm
00:39 13.4 °C 2 °C 1009.5 hPa SSE 3.2 km/h 5.6 km/h 46% 0.0 mm
00:44 13.4 °C 2.2 °C 1009.3 hPa SE 3.2 km/h 7.4 km/h 46.9% 0.0 mm
00:49 13.4 °C 2.3 °C 1009.3 hPa SSE 3.2 km/h 9.3 km/h 47.1% 0.0 mm
00:54 13.3 °C 2.5 °C 1009.3 hPa SSE 4.3 km/h 9.7 km/h 48% 0.0 mm
00:59 13.2 °C 2.8 °C 1009.2 hPa SE 5 km/h 11.9 km/h 49.2% 0.0 mm
01:04 12.9 °C 3 °C 1009.2 hPa SE 5.9 km/h 11.3 km/h 50.8% 0.0 mm
01:09 12.7 °C 3.1 °C 1009.2 hPa SSE 6.5 km/h 11.3 km/h 52.2% 0.0 mm
01:14 12.4 °C 3.1 °C 1009.0 hPa SSE 6.5 km/h 11.9 km/h 53% 0.0 mm
01:19 12.3 °C 3.2 °C 1009.0 hPa Sur 6.5 km/h 11.3 km/h 53.9% 0.0 mm
01:24 12.3 °C 3.2 °C 1009.0 hPa SSE 6.5 km/h 11.1 km/h 54% 0.0 mm
01:29 12.2 °C 3.2 °C 1009.0 hPa Sur 6.5 km/h 11.3 km/h 54% 0.0 mm
01:34 12.3 °C 3.2 °C 1009.0 hPa SSE 5.4 km/h 8 km/h 54% 0.0 mm
01:39 12.3 °C 3.2 °C 1009.0 hPa SSE 4.7 km/h 7.4 km/h 54% 0.0 mm
01:44 12.4 °C 3.1 °C 1008.8 hPa SE 4.2 km/h 8 km/h 53.3% 0.0 mm
01:49 12.5 °C 3.2 °C 1008.8 hPa SE 3.9 km/h 11.1 km/h 53% 0.0 mm
01:54 12.6 °C 3.3 °C 1008.8 hPa SE 5.5 km/h 11.3 km/h 53.1% 0.0 mm
01:59 12.6 °C 3.3 °C 1008.7 hPa SSE 6.5 km/h 11.3 km/h 53% 0.0 mm
02:04 12.7 °C 3.3 °C 1008.7 hPa Sur 5.5 km/h 9.7 km/h 53% 0.0 mm
02:09 12.7 °C 3.3 °C 1008.7 hPa Sur 5 km/h 8 km/h 53% 0.0 mm
02:14 12.7 °C 3.4 °C 1008.6 hPa SSE 4.3 km/h 9.5 km/h 53% 0.0 mm
02:19 12.8 °C 3.5 °C 1008.6 hPa SE 3.9 km/h 9.7 km/h 53% 0.0 mm
02:24 12.9 °C 3.5 °C 1008.6 hPa SSE 5.1 km/h 10 km/h 52.7% 0.0 mm
02:29 12.9 °C 3.6 °C 1008.2 hPa SSE 5.8 km/h 9.7 km/h 53% 0.0 mm
02:34 12.9 °C 3.5 °C 1008.2 hPa Sur 5.8 km/h 9.7 km/h 52.7% 0.0 mm
02:39 13 °C 3.3 °C 1008.2 hPa SSE 5.8 km/h 10 km/h 52% 0.0 mm
02:44 13.1 °C 3.3 °C 1008.1 hPa Sur 6.5 km/h 11.9 km/h 51.5% 0.0 mm
02:49 13.1 °C 3.5 °C 1008.1 hPa SSE 6.9 km/h 13 km/h 52% 0.0 mm
02:54 13.2 °C 3.5 °C 1008.1 hPa SSE 7.8 km/h 13 km/h 52% 0.0 mm
02:59 13.2 °C 3.4 °C 1007.7 hPa SSE 8.4 km/h 12.9 km/h 51.5% 0.0 mm
03:04 13.2 °C 3.4 °C 1007.7 hPa SSE 7.1 km/h 9.7 km/h 51.5% 0.0 mm
03:09 13.3 °C 3.5 °C 1007.7 hPa SSE 6.5 km/h 8 km/h 51.6% 0.0 mm
03:14 13.3 °C 3.7 °C 1007.4 hPa SSE 4.2 km/h 4.8 km/h 52% 0.0 mm
03:19 13.3 °C 3.9 °C 1007.4 hPa SSE 2.9 km/h 7.4 km/h 52.9% 0.0 mm
03:24 13.3 °C 3.8 °C 1007.4 hPa SE 2.9 km/h 8 km/h 52.8% 0.0 mm
03:29 13.2 °C 3.8 °C 1007.3 hPa SE 2.9 km/h 3.9 km/h 53% 0.0 mm
03:34 13.2 °C 3.7 °C 1007.3 hPa SE 2.5 km/h 3.9 km/h 52.5% 0.0 mm
03:39 13.2 °C 3.8 °C 1007.3 hPa SE 2.2 km/h 3.9 km/h 53% 0.0 mm
03:44 13.2 °C 3.7 °C 1007.2 hPa SE 2.2 km/h 3.7 km/h 52.5% 0.0 mm
03:49 13.3 °C 3.9 °C 1007.2 hPa SE 2.2 km/h 3.7 km/h 52.9% 0.0 mm
03:54 13.3 °C 3.9 °C 1007.2 hPa SSE 0.8 km/h 3.7 km/h 53.1% 0.0 mm
03:59 13.3 °C 4.2 °C 1006.9 hPa Calm   3.9 km/h 54% 0.0 mm
04:04 13.2 °C 4.1 °C 1006.9 hPa Oeste 1.5 km/h 3.9 km/h 54% 0.0 mm
04:09 13.1 °C 4.2 °C 1007.0 hPa NO 2.2 km/h 5.6 km/h 54.7% 0.0 mm
04:14 13 °C 4.2 °C 1007.0 hPa NO 0.8 km/h 4.8 km/h 55.4% 0.0 mm
04:19 12.9 °C 4.1 °C 1007.0 hPa Calm   4.7 km/h 55.2% 0.0 mm
04:24 12.8 °C 4.2 °C 1007.0 hPa NO 1.4 km/h 4.8 km/h 55.9% 0.0 mm
04:29 12.8 °C 4.2 °C 1006.8 hPa NO 2.2 km/h 4.8 km/h 56% 0.0 mm
04:34 12.8 °C 4.3 °C 1006.8 hPa NO 0.8 km/h   56.3% 0.0 mm
04:39 12.8 °C 4.2 °C 1006.8 hPa Calm   7.4 km/h 56% 0.0 mm
04:44 12.7 °C 4.3 °C 1006.5 hPa NO 2 km/h 8 km/h 56.6% 0.0 mm
04:49 12.6 °C 4.3 °C 1006.5 hPa NO 3.2 km/h 4.8 km/h 57% 0.0 mm
04:54 12.7 °C 4.3 °C 1006.7 hPa North 2.6 km/h 5.8 km/h 57% 0.0 mm
04:59 12.8 °C 4.5 °C 1006.7 hPa SE 2.2 km/h 6.4 km/h 57% 0.0 mm
05:04 12.8 °C 4.6 °C 1006.7 hPa SSO 2.2 km/h 7.4 km/h 57.4% 0.0 mm
05:09 12.8 °C 4.5 °C 1006.7 hPa ONO 2.2 km/h 8 km/h 57.2% 0.0 mm
05:14 12.7 °C 4.5 °C 1006.5 hPa ONO 3.3 km/h 8 km/h 57.3% 0.0 mm
05:19 12.6 °C 4.6 °C 1006.5 hPa NO 3.9 km/h 9.5 km/h 58% 0.0 mm
05:24 12.5 °C 4.6 °C 1006.5 hPa ONO 4.4 km/h 9.7 km/h 58.6% 0.0 mm
05:29 12.3 °C 4.6 °C 1006.4 hPa ONO 4.7 km/h 11.1 km/h 59.3% 0.0 mm
05:34 12.3 °C 4.8 °C 1006.4 hPa ONO 5.4 km/h 11.3 km/h 60% 0.0 mm
05:39 12.3 °C 4.8 °C 1006.4 hPa OSO 5.8 km/h 8 km/h 60.1% 0.0 mm
05:44 12.3 °C 5 °C 1006.4 hPa Oeste 5.1 km/h 8 km/h 60.8% 0.0 mm
05:49 12.3 °C 5.2 °C 1006.4 hPa Oeste 4.7 km/h 8 km/h 62% 0.0 mm
05:54 12.4 °C 5.3 °C 1006.4 hPa Sur 3.1 km/h 5.6 km/h 62% 0.0 mm
05:59 12.5 °C 5.6 °C 1006.2 hPa SSE 2.2 km/h 7.6 km/h 62.8% 0.0 mm
06:04 12.6 °C 5.8 °C 1006.2 hPa SSE 3.8 km/h 8.4 km/h 63.4% 0.0 mm
06:09 12.6 °C 5.6 °C 1006.3 hPa Sur 4.7 km/h 8 km/h 62.6% 0.0 mm
06:14 12.5 °C 5.8 °C 1006.3 hPa SSE 4.9 km/h 11.1 km/h 63.6% 0.0 mm
06:19 12.4 °C 6.1 °C 1006.3 hPa ESE 5 km/h 11.3 km/h 65.4% 0.0 mm
06:24 12.3 °C 6.1 °C 1006.3 hPa ESE 5.5 km/h 9.7 km/h 66.1% 0.0 mm
06:29 12.2 °C 6.3 °C 1006.0 hPa SE 5.8 km/h 10.3 km/h 67.1% 0.0 mm
06:34 12.1 °C 6.4 °C 1006.0 hPa SSE 5.8 km/h 11.3 km/h 67.9% 0.0 mm
06:39 11.9 °C 6.2 °C 1006.0 hPa Sur 5.8 km/h 11.3 km/h 67.9% 0.0 mm
06:44 11.9 °C 6 °C 1005.8 hPa Sur 6.2 km/h 9.7 km/h 67.1% 0.0 mm
06:49 12 °C 6 °C 1005.8 hPa SSO 6.5 km/h 9.7 km/h 67% 0.0 mm
06:54 12.1 °C 6.2 °C 1005.8 hPa SSO 6 km/h 8 km/h 67% 0.0 mm
06:59 12.2 °C 6.3 °C 1005.7 hPa Sur 5.8 km/h 8 km/h 67.4% 0.0 mm
07:04 12.2 °C 6.3 °C 1005.7 hPa Sur 4.1 km/h 8.7 km/h 67.1% 0.0 mm
07:09 12.2 °C 6.2 °C 1005.7 hPa Sur 3.2 km/h 9.7 km/h 67% 0.0 mm
07:14 12.2 °C 6.1 °C 1005.5 hPa SSO 4.8 km/h 9.7 km/h 66.4% 0.0 mm
07:19 12.2 °C 6 °C 1005.5 hPa Sur 5.8 km/h 9.7 km/h 65.6% 0.0 mm
07:24 12.2 °C 6 °C 1005.6 hPa SSO 5.3 km/h 9.7 km/h 65.8% 0.0 mm
07:29 12.2 °C 5.9 °C 1005.6 hPa OSO 5 km/h 8 km/h 65.2% 0.0 mm
07:34 12.2 °C 5.8 °C 1005.6 hPa OSO 3.9 km/h 6.4 km/h 65% 0.0 mm
07:39 12.2 °C 5.9 °C 1005.7 hPa Oeste 3.2 km/h 9.3 km/h 65.3% 0.0 mm
07:44 12.1 °C 6 °C 1005.7 hPa Oeste 3.6 km/h 9.7 km/h 66.1% 0.0 mm
07:49 12.1 °C 6.1 °C 1005.7 hPa OSO 3.9 km/h 8 km/h 66.8% 0.0 mm
07:54 11.9 °C 5.9 °C 1005.7 hPa SSE 3.2 km/h 6.4 km/h 66.8% 0.0 mm
07:59 11.9 °C 5.9 °C 1005.6 hPa Este 2.9 km/h 4.8 km/h 66.7% 0.0 mm
08:04 11.9 °C 6.2 °C 1005.6 hPa NE 2.5 km/h 4.8 km/h 68% 0.0 mm
08:09 11.9 °C 6.4 °C 1005.8 hPa NE 2.2 km/h 3.9 km/h 69.1% 0.0 mm
08:14 12.1 °C 6.7 °C 1005.8 hPa NE 0.8 km/h 4.7 km/h 70% 0.0 mm
08:19 12.2 °C 6.8 °C 1005.8 hPa Calm   4.8 km/h 69.5% 0.0 mm
08:24 12.3 °C 6.8 °C 1005.9 hPa NE 1.4 km/h 5.6 km/h 69% 0.0 mm
08:29 12.4 °C 6.7 °C 1005.9 hPa SE 2.2 km/h 7.4 km/h 67.8% 0.0 mm
08:34 12.5 °C 6.7 °C 1005.9 hPa Sur 2.9 km/h 8 km/h 67.8% 0.0 mm
08:39 12.6 °C 6.9 °C 1005.9 hPa Sur 3.2 km/h 6.4 km/h 68.1% 0.0 mm
08:44 12.7 °C 6.6 °C 1005.7 hPa SSE 3 km/h 8 km/h 66.3% 0.0 mm
08:49 12.8 °C 6.6 °C 1005.7 hPa SSE 2.9 km/h 8 km/h 65.9% 0.0 mm
08:54 12.9 °C 6.7 °C 1005.9 hPa SSE 3.1 km/h 7.6 km/h 66% 0.0 mm
08:59 13 °C 6.6 °C 1005.9 hPa Sur 3.2 km/h 9.3 km/h 65.2% 0.0 mm
09:04 13.1 °C 6.7 °C 1005.9 hPa SSO 4.9 km/h 10 km/h 65% 0.0 mm
09:09 13.2 °C 6.6 °C 1005.9 hPa SO 5.8 km/h 10 km/h 64% 0.0 mm
09:14 13.4 °C 6.3 °C 1005.9 hPa SO 5.8 km/h 9.7 km/h 61.9% 0.0 mm
09:19 13.7 °C 6.1 °C 1005.9 hPa OSO 5.8 km/h 9.7 km/h 60.2% 0.0 mm
09:24 13.9 °C 6 °C 1006.2 hPa Oeste 5.1 km/h 8.4 km/h 59% 0.0 mm
09:29 14.2 °C 6 °C 1006.2 hPa OSO 4.7 km/h 8.4 km/h 58.1% 0.0 mm
09:34 14.3 °C 5.9 °C 1006.2 hPa SO 4.9 km/h 8 km/h 57.1% 0.0 mm
09:39 14.4 °C 6 °C 1006.5 hPa SO 5 km/h 8 km/h 56.8% 0.0 mm
09:44 14.6 °C 5.9 °C 1006.5 hPa SSO 4.3 km/h 8 km/h 55.8% 0.0 mm
09:49 14.8 °C 5.9 °C 1006.5 hPa Sur 3.9 km/h 8 km/h 55.3% 0.0 mm
09:54 15.2 °C 6 °C 1006.5 hPa SSE 3.9 km/h 8 km/h 54.4% 0.0 mm
09:59 15.5 °C 6.1 °C 1006.5 hPa Sur 3.9 km/h 7.6 km/h 53.5% 0.0 mm
10:04 15.8 °C 6.2 °C 1006.5 hPa SSE 3.9 km/h 8 km/h 52.9% 0.0 mm
10:09 16 °C 6.1 °C 1006.5 hPa Sur 3.9 km/h 8 km/h 51.8% 0.0 mm
10:14 16.3 °C 6.2 °C 1006.5 hPa SSO 3.5 km/h 8 km/h 51% 0.0 mm
10:19 16.6 °C 6.2 °C 1006.5 hPa Sur 3.2 km/h 8.4 km/h 50.2% 0.0 mm
10:24 16.8 °C 6.3 °C 1006.6 hPa SSO 4.1 km/h 8.4 km/h 50% 0.0 mm
10:29 16.9 °C 6.2 °C 1006.6 hPa Sur 4.7 km/h 10 km/h 49.4% 0.0 mm
10:34 17.1 °C 6.4 °C 1006.6 hPa SSO 5.4 km/h 10.3 km/h 49.5% 0.0 mm
10:39 17.2 °C 6.7 °C 1006.7 hPa SSO 5.8 km/h 11.9 km/h 50.1% 0.0 mm
10:44 17.5 °C 7.2 °C 1006.7 hPa SO 6.5 km/h 11.3 km/h 50.8% 0.0 mm
10:49 17.8 °C 7.5 °C 1006.7 hPa SO 6.9 km/h 19 km/h 51% 0.0 mm
10:54 18.1 °C 7.8 °C 1006.7 hPa SO 6.9 km/h 19.3 km/h 51% 0.0 mm
10:59 18.4 °C 7.9 °C 1006.5 hPa SSO 6.9 km/h 19 km/h 50.5% 0.0 mm
11:04 18.6 °C 8 °C 1006.5 hPa SSO 8.6 km/h 19.3 km/h 50% 0.0 mm
11:09 18.8 °C 8.2 °C 1006.5 hPa SO 9.5 km/h 16.7 km/h 50.1% 0.0 mm
11:14 19.2 °C 8.4 °C 1006.5 hPa SSO 9.5 km/h 16.7 km/h 49.8% 0.0 mm
11:19 19.5 °C 8.5 °C 1006.5 hPa SO 9.5 km/h 20.4 km/h 49.3% 0.0 mm
11:24 19.6 °C 8.6 °C 1006.5 hPa SO 11 km/h 24.1 km/h 49% 0.0 mm
11:29 19.8 °C 8.7 °C 1006.4 hPa SO 11.9 km/h 24.1 km/h 48.7% 0.0 mm
11:34 20.1 °C 8.7 °C 1006.4 hPa SO 12.1 km/h 20.9 km/h 48% 0.0 mm
11:39 20.3 °C 8.9 °C 1006.5 hPa SO 12.2 km/h 20.9 km/h 48% 0.0 mm
11:44 20.4 °C 8.8 °C 1006.5 hPa SO 10.8 km/h 17.2 km/h 47.1% 0.0 mm
11:49 20.4 °C 8.7 °C 1006.5 hPa SO 10 km/h 18.5 km/h 47% 0.0 mm
11:54 20.6 °C 8.9 °C 1006.7 hPa SO 10 km/h 19.3 km/h 47.2% 0.0 mm
11:59 20.8 °C 8.9 °C 1006.7 hPa OSO 10 km/h 14.8 km/h 46.4% 0.0 mm
12:04 21.2 °C 8.9 °C 1006.7 hPa Oeste 8.4 km/h 16.7 km/h 45.4% 0.0 mm
12:09 21.5 °C 9.1 °C 1006.7 hPa OSO 7.6 km/h 20.9 km/h 45% 0.0 mm
12:14 21.8 °C 9 °C 1006.7 hPa Oeste 9.8 km/h 27.8 km/h 43.9% 0.0 mm
12:19 22.1 °C 8.9 °C 1006.7 hPa ONO 11.1 km/h 27.8 km/h 43% 0.0 mm
12:24 22.3 °C 9 °C 1006.7 hPa Oeste 15.5 km/h 33.5 km/h 42.7% 0.0 mm
12:29 22.4 °C 8.8 °C 1006.7 hPa Oeste 18 km/h 33.8 km/h 42% 0.0 mm
12:34 22.4 °C 8.8 °C 1006.7 hPa Oeste 18.6 km/h 33.8 km/h 41.9% 0.0 mm
12:39 22.5 °C 8.7 °C 1006.7 hPa OSO 19 km/h 35.9 km/h 41.3% 0.0 mm
12:44 22.6 °C 8.7 °C 1006.5 hPa OSO 18.4 km/h 35.4 km/h 41% 0.0 mm
12:49 22.7 °C 8.9 °C 1006.5 hPa OSO 18 km/h 29.8 km/h 41.4% 0.0 mm
12:54 22.7 °C 8.9 °C 1006.5 hPa ONO 15.5 km/h 30.6 km/h 41.4% 0.0 mm
12:59 22.9 °C 8.9 °C 1006.3 hPa ONO 14 km/h 33.3 km/h 40.7% 0.0 mm
13:04 23.1 °C 8.7 °C 1006.3 hPa Oeste 17.4 km/h 40.7 km/h 39.8% 0.0 mm
13:09 23.2 °C 8.6 °C 1006.3 hPa Oeste 19 km/h 40.2 km/h 39.2% 0.0 mm
13:14 23.3 °C 8.6 °C 1006.1 hPa ONO 22.8 km/h 37 km/h 39% 0.0 mm
13:19 23.2 °C 8.5 °C 1006.1 hPa ONO 25.1 km/h 44.4 km/h 39% 0.0 mm
13:24 23.2 °C 8.5 °C 1006.3 hPa ONO 23.5 km/h 45.1 km/h 39% 0.0 mm
13:29 23.2 °C 8.5 °C 1006.3 hPa Oeste 22.5 km/h 48.1 km/h 39% 0.0 mm
13:34 23.2 °C 8.5 °C 1006.3 hPa ONO 24.5 km/h 48.3 km/h 39% 0.0 mm
13:39 23.2 °C 8.5 °C 1006.3 hPa Oeste 25.6 km/h 49.2 km/h 39% 0.0 mm
13:44 23 °C 8.3 °C 1006.3 hPa Oeste 27.6 km/h 55.5 km/h 39.1% 0.0 mm
13:49 22.8 °C 8.5 °C 1006.3 hPa ONO 28.7 km/h 56.3 km/h 40% 0.0 mm
13:54 22.8 °C 8.4 °C 1006.5 hPa ONO 29.9 km/h 51.8 km/h 39.7% 0.0 mm
13:59 22.7 °C 8.4 °C 1006.5 hPa ONO 30.6 km/h 51.5 km/h 40% 0.0 mm
14:04 22.6 °C 8.3 °C 1006.5 hPa Oeste 28.9 km/h 46.8 km/h 40% 0.0 mm
14:09 22.7 °C 8.4 °C 1006.6 hPa Oeste 28.2 km/h 46.7 km/h 40% 0.0 mm
14:14 22.6 °C 8.4 °C 1006.6 hPa Oeste 26.2 km/h 46.7 km/h 40% 0.0 mm
14:19 22.5 °C 8.3 °C 1006.6 hPa Oeste 25.1 km/h 50.1 km/h 40% 0.0 mm
14:24 22.6 °C 8.3 °C 1006.6 hPa Oeste 25.4 km/h 49.9 km/h 40% 0.0 mm
14:29 22.6 °C 8.4 °C 1006.4 hPa ONO 25.6 km/h 42 km/h 40.2% 0.0 mm
14:34 22.7 °C 8.4 °C 1006.4 hPa Oeste 25.6 km/h 44.9 km/h 40% 0.0 mm
14:39 22.7 °C 8.4 °C 1006.4 hPa Oeste 25.6 km/h 45.1 km/h 40% 0.0 mm
14:44 22.8 °C 8.5 °C 1006.4 hPa Oeste 25.6 km/h 42.6 km/h 40% 0.0 mm
14:49 22.8 °C 8.5 °C 1006.4 hPa Oeste 25.6 km/h 41.8 km/h 39.9% 0.0 mm
14:54 22.8 °C 8.5 °C 1006.5 hPa Oeste 24.4 km/h 44.4 km/h 39.9% 0.0 mm
14:59 22.8 °C 8.1 °C 1006.5 hPa Oeste 23.7 km/h 45.1 km/h 39% 0.0 mm
15:04 22.8 °C 8.1 °C 1006.5 hPa Oeste 25 km/h 50.1 km/h 39.1% 0.0 mm
15:09 22.8 °C 8.1 °C 1006.6 hPa ONO 25.6 km/h 49.9 km/h 39% 0.0 mm
15:14 22.7 °C 8.1 °C 1006.6 hPa Oeste 24.4 km/h 45.1 km/h 39.3% 0.0 mm
15:19 22.7 °C 8.4 °C 1006.6 hPa Oeste 23.7 km/h 41.2 km/h 40% 0.0 mm
15:24 22.6 °C 8.3 °C 1006.6 hPa Oeste 21.4 km/h 41.8 km/h 40% 0.0 mm
15:29 22.6 °C 8.3 °C 1006.6 hPa Oeste 20.1 km/h 38.6 km/h 40% 0.0 mm
15:34 22.7 °C 8.1 °C 1006.6 hPa Oeste 20.6 km/h 43.1 km/h 39.2% 0.0 mm
15:39 22.9 °C 8.2 °C 1006.6 hPa Oeste 20.9 km/h 43.5 km/h 39% 0.0 mm
15:44 22.9 °C 8.2 °C 1006.6 hPa Oeste 21.6 km/h 40.7 km/h 39.1% 0.0 mm
15:49 23 °C 8.6 °C 1006.6 hPa OSO 22.1 km/h 40.2 km/h 40% 0.0 mm
15:54 23.1 °C 8.4 °C 1006.8 hPa Oeste 18 km/h 35.2 km/h 39.2% 0.0 mm
15:59 23 °C 8.4 °C 1006.8 hPa Oeste 15.6 km/h 35.4 km/h 39.4% 0.0 mm
16:04 23 °C 8.6 °C 1006.8 hPa Oeste 16.1 km/h 30.6 km/h 39.9% 0.0 mm
16:09 22.9 °C 8.6 °C 1007.1 hPa Oeste 16.4 km/h 32.8 km/h 40% 0.0 mm
16:14 22.8 °C 8.5 °C 1007.1 hPa Oeste 16.9 km/h 44.4 km/h 40% 0.0 mm
16:19 22.8 °C 8.5 °C 1007.1 hPa Oeste 17.2 km/h 45.1 km/h 40% 0.0 mm
16:24 22.7 °C 8.4 °C 1007.5 hPa Oeste 19.6 km/h 41.8 km/h 40.1% 0.0 mm
16:29 22.7 °C 8.7 °C 1007.5 hPa Oeste 20.9 km/h 37.8 km/h 40.7% 0.0 mm
16:34 22.7 °C 8.6 °C 1007.5 hPa ONO 17 km/h 37.8 km/h 40.8% 0.0 mm
16:39 22.6 °C 8.6 °C 1007.7 hPa NO 14.8 km/h 37 km/h 41% 0.0 mm
16:44 22.4 °C 8.5 °C 1007.7 hPa NO 14.8 km/h 33.8 km/h 41% 0.0 mm
16:49 22.3 °C 8.4 °C 1007.7 hPa NO 14.8 km/h 29 km/h 41% 0.0 mm
16:54 22.2 °C 8.3 °C 1007.7 hPa NO 15.3 km/h 28.2 km/h 41% 0.0 mm
16:59 22.1 °C 8.2 °C 1007.7 hPa NO 15.6 km/h 33.3 km/h 41% 0.0 mm
17:04 22.1 °C 8.5 °C 1007.7 hPa ONO 17.2 km/h 33.8 km/h 42% 0.0 mm
17:09 21.9 °C 8.4 °C 1007.9 hPa NO 18 km/h 33.3 km/h 42% 0.0 mm
17:14 21.8 °C 8.6 °C 1007.9 hPa ONO 18.2 km/h 33.8 km/h 42.6% 0.0 mm
17:19 21.8 °C 8.7 °C 1007.9 hPa NO 18.4 km/h 29 km/h 43% 0.0 mm
17:24 21.7 °C 8.6 °C 1008.3 hPa NO 15.6 km/h 33.3 km/h 43% 0.0 mm
17:29 21.7 °C 8.8 °C 1008.3 hPa NO 14 km/h 33.8 km/h 43.7% 0.0 mm
17:34 21.7 °C 8.9 °C 1008.3 hPa ONO 15.3 km/h 30.6 km/h 44% 0.0 mm
17:39 21.6 °C 8.8 °C 1008.6 hPa NO 16.1 km/h 25.9 km/h 44% 0.0 mm
17:44 21.6 °C 8.8 °C 1008.6 hPa NO 14.8 km/h 25.9 km/h 44.1% 0.0 mm
17:49 21.4 °C 9 °C 1008.6 hPa NO 14 km/h 25.9 km/h 45% 0.0 mm
17:54 21.3 °C 8.9 °C 1008.7 hPa NO 15 km/h 25.7 km/h 45% 0.0 mm
17:59 21.2 °C 8.9 °C 1008.7 hPa ONO 15.6 km/h 24.1 km/h 45.3% 0.0 mm
18:04 21.2 °C 9.1 °C 1008.7 hPa ONO 14.5 km/h 25.9 km/h 46% 0.0 mm
18:09 21.2 °C 9 °C 1009.0 hPa ONO 14 km/h 25.7 km/h 46% 0.0 mm
18:14 21 °C 9.1 °C 1009.0 hPa ONO 13.8 km/h 22.5 km/h 46.4% 0.0 mm
18:19 20.9 °C 9.2 °C 1009.0 hPa ONO 13.7 km/h 22.5 km/h 47% 0.0 mm
18:24 20.9 °C 9.2 °C 1009.4 hPa ONO 12 km/h 19.3 km/h 47% 0.0 mm
18:29 20.8 °C 9.2 °C 1009.4 hPa ONO 11.1 km/h 14.5 km/h 47.3% 0.0 mm
18:34 20.8 °C 9.4 °C 1009.4 hPa NO 9.4 km/h 16.7 km/h 48% 0.0 mm
18:39 20.7 °C 9.3 °C 1009.4 hPa ONO 8.4 km/h 16.7 km/h 48% 0.0 mm
18:44 20.7 °C 9.3 °C 1009.4 hPa ONO 8.4 km/h 14.8 km/h 48% 0.0 mm
18:49 20.6 °C 9.2 °C 1009.4 hPa ONO 8.4 km/h 14.5 km/h 48% 0.0 mm
18:54 20.6 °C 9.5 °C 1009.6 hPa ONO 7.4 km/h 13.7 km/h 49% 0.0 mm
18:59 20.4 °C 9.4 °C 1009.6 hPa ONO 6.9 km/h 14.5 km/h 49% 0.0 mm
19:04 20.4 °C 9.3 °C 1009.6 hPa ONO 7.4 km/h 12.9 km/h 49% 0.0 mm
19:09 20.3 °C 9.5 °C 1009.8 hPa Oeste 7.6 km/h 11.3 km/h 49.8% 0.0 mm
19:14 20.3 °C 9.5 °C 1009.8 hPa Oeste 6.5 km/h 9.7 km/h 50% 0.0 mm
19:19 20.2 °C 9.4 °C 1009.8 hPa Oeste 5.8 km/h 8 km/h 50% 0.0 mm
19:24 20.2 °C 9.4 °C 1010.0 hPa Oeste 4.1 km/h 4.8 km/h 50% 0.0 mm
19:29 20.1 °C 9.3 °C 1010.0 hPa Oeste 3.2 km/h 4.7 km/h 50% 0.0 mm
19:34 20.1 °C 9.3 °C 1010.0 hPa Oeste 2.6 km/h 7.4 km/h 50% 0.0 mm
19:39 20.2 °C 9.4 °C 1010.1 hPa ONO 2.2 km/h 8 km/h 50% 0.0 mm
19:44 20.2 °C 9.4 °C 1010.1 hPa ONO 4 km/h 9.5 km/h 50% 0.0 mm
19:49 20.2 °C 9.4 °C 1010.1 hPa ONO 5 km/h 9.7 km/h 50% 0.0 mm
19:54 20.2 °C 9.4 °C 1010.3 hPa ONO 6.2 km/h 9.7 km/h 50% 0.0 mm
19:59 20.1 °C 9.3 °C 1010.3 hPa ONO 6.9 km/h 10 km/h 50% 0.0 mm
20:04 20.1 °C 9.5 °C 1010.3 hPa NO 6.6 km/h 11.1 km/h 50.6% 0.0 mm
20:09 19.9 °C 9.5 °C 1010.4 hPa NO 6.5 km/h 11.3 km/h 51% 0.0 mm
20:14 19.8 °C 9.4 °C 1010.4 hPa NO 6.8 km/h 11.9 km/h 51% 0.0 mm
20:19 19.7 °C 9.3 °C 1010.4 hPa NO 6.9 km/h 11.3 km/h 51% 0.0 mm
20:24 19.7 °C 9.3 °C 1010.4 hPa NO 6.9 km/h 11.9 km/h 51% 0.0 mm
20:29 19.7 °C 9.3 °C 1010.4 hPa NNO 6.9 km/h 11.9 km/h 51% 0.0 mm
20:34 19.7 °C 9.3 °C 1010.4 hPa NO 7.3 km/h 11.9 km/h 51% 0.0 mm
20:39 19.7 °C 9 °C 1010.4 hPa NO 7.6 km/h 14.8 km/h 50.1% 0.0 mm
20:44 19.8 °C 9 °C 1010.4 hPa NO 8.3 km/h 16.7 km/h 50% 0.0 mm
20:49 19.8 °C 9.1 °C 1010.4 hPa ONO 8.7 km/h 16.7 km/h 50% 0.0 mm
20:54 19.7 °C 9 °C 1010.6 hPa ONO 9.5 km/h 16.1 km/h 50% 0.0 mm
20:59 19.7 °C 9.1 °C 1010.6 hPa NO 10 km/h 16.7 km/h 50.6% 0.0 mm
21:04 19.6 °C 9.1 °C 1010.6 hPa ONO 10 km/h 16.1 km/h 51% 0.0 mm
21:09 19.4 °C 9 °C 1010.7 hPa SO 10 km/h 12.9 km/h 51% 0.0 mm
21:14 19.4 °C 9 °C 1010.7 hPa Sur 7.3 km/h 10 km/h 51% 0.0 mm
21:19 19.4 °C 9 °C 1010.7 hPa SSO 5.8 km/h 13.7 km/h 51% 0.0 mm
21:24 19.3 °C 8.9 °C 1010.9 hPa SSO 6.5 km/h 14.8 km/h 51% 0.0 mm
21:29 19.2 °C 8.8 °C 1010.9 hPa SSO 6.9 km/h 14.8 km/h 51% 0.0 mm
21:34 19.1 °C 8.7 °C 1010.9 hPa SSO 8.6 km/h 14.8 km/h 51% 0.0 mm
21:39 19 °C 8.6 °C 1010.9 hPa SO 9.5 km/h 14.5 km/h 51% 0.0 mm
21:44 18.9 °C 8.6 °C 1010.8 hPa SO 8.3 km/h 11.3 km/h 51% 0.0 mm
21:49 18.8 °C 8.5 °C 1010.8 hPa SO 7.6 km/h 11.3 km/h 51% 0.0 mm
21:54 18.8 °C 8.5 °C 1010.8 hPa SO 6.8 km/h 9.7 km/h 51.3% 0.0 mm
21:59 18.8 °C 8.7 °C 1010.8 hPa SO 6.5 km/h 11.1 km/h 52% 0.0 mm
22:04 18.7 °C 8.6 °C 1010.8 hPa SO 6.5 km/h 11.3 km/h 52% 0.0 mm
22:09 18.7 °C 8.6 °C 1010.8 hPa SO 6.5 km/h 9.7 km/h 52% 0.0 mm
22:14 18.7 °C 8.6 °C 1010.7 hPa SO 5.3 km/h 8 km/h 52% 0.0 mm
22:19 18.6 °C 8.6 °C 1010.7 hPa SO 4.7 km/h 6.4 km/h 52% 0.0 mm
22:24 18.5 °C 8.6 °C 1010.7 hPa OSO 3.5 km/h 7.6 km/h 52.5% 0.0 mm
22:29 18.3 °C 8.6 °C 1010.6 hPa Oeste 2.9 km/h 8.4 km/h 53% 0.0 mm
22:34 18.1 °C 8.7 °C 1010.6 hPa Oeste 4.2 km/h 8.4 km/h 54% 0.0 mm
22:39 17.9 °C 8.7 °C 1010.9 hPa OSO 5 km/h 8 km/h 54.8% 0.0 mm
22:44 17.8 °C 8.6 °C 1010.9 hPa SO 4.3 km/h 8 km/h 55% 0.0 mm
22:49 17.7 °C 8.6 °C 1010.9 hPa Sur 3.9 km/h 7.6 km/h 55.2% 0.0 mm
22:54 17.7 °C 8.8 °C 1010.9 hPa Sur 3.9 km/h 8 km/h 56% 0.0 mm
22:59 17.6 °C 8.7 °C 1010.9 hPa SO 3.9 km/h 8 km/h 55.7% 0.0 mm
23:04 17.6 °C 8.6 °C 1010.9 hPa Oeste 3.9 km/h 8 km/h 55.8% 0.0 mm
23:09 17.5 °C 8.6 °C 1010.9 hPa ONO 3.9 km/h 8 km/h 56% 0.0 mm
23:14 17.3 °C 8.7 °C 1010.7 hPa North 3.2 km/h 10 km/h 57% 0.0 mm
23:19 16.9 °C 8.9 °C 1010.7 hPa ENE 2.9 km/h 9.7 km/h 59.1% 0.0 mm
23:24 16.7 °C 8.8 °C 1010.7 hPa ESE 5.1 km/h 9.7 km/h 60.1% 0.0 mm
23:29 16.4 °C 8.9 °C 1010.4 hPa ESE 6.5 km/h 9.7 km/h 61% 0.0 mm
23:34 16.2 °C 8.8 °C 1010.4 hPa ESE 5.5 km/h 9.7 km/h 61.2% 0.0 mm
23:39 16.1 °C 8.8 °C 1010.4 hPa Este 5 km/h 8 km/h 62% 0.0 mm
23:44 15.9 °C 8.6 °C 1010.3 hPa ENE 3.2 km/h 3.9 km/h 62% 0.0 mm
23:49 15.8 °C 8.7 °C 1010.3 hPa NNE 2.2 km/h 3.2 km/h 62.6% 0.0 mm
23:54 15.8 °C 8.7 °C 1010.3 hPa NNE 0.8 km/h 5.8 km/h 63% 0.0 mm
23:59 15.7 °C 8.8 °C 1009.9 hPa Calm   7.4 km/h 63.8% 0.0 mm
Murcia-Puente Tocinos, España
Compliments of Weather Underground - 3 mb

La estación de MeteoMurcia.com, publica sus datos en los siguientes proyectos:

Weather Underground PWS IMURCIAP2 Meteoclimatic www.awekas.at

W3Counter
Web Analytics